createdAt,value
2023-02-05T00:01:43.965Z,5.80
2023-02-05T00:04:17.413Z,6.57
2023-02-05T00:06:50.770Z,4.18
2023-02-05T00:09:23.981Z,5.05
2023-02-05T00:11:59.279Z,3.00
2023-02-05T00:14:35.090Z,5.10
2023-02-05T00:17:09.066Z,4.78
2023-02-05T00:19:42.316Z,4.93
2023-02-05T00:22:15.596Z,3.25
2023-02-05T00:24:48.876Z,6.80
2023-02-05T00:27:22.091Z,3.72
2023-02-05T00:29:56.614Z,2.75
2023-02-05T00:32:30.474Z,2.40
2023-02-05T00:35:04.060Z,3.20
2023-02-05T00:37:37.438Z,2.58
2023-02-05T00:40:11.914Z,4.45
2023-02-05T00:42:45.097Z,2.92
2023-02-05T00:45:19.748Z,2.60
2023-02-05T00:47:53.312Z,3.63
2023-02-05T00:50:26.681Z,2.65
2023-02-05T00:53:00.280Z,2.63
2023-02-05T00:55:34.046Z,3.83
2023-02-05T00:58:07.513Z,4.63
2023-02-05T01:00:42.416Z,2.67
2023-02-05T01:03:15.704Z,4.50
2023-02-05T01:05:50.325Z,2.28
2023-02-05T01:08:23.733Z,2.10
2023-02-05T01:10:57.889Z,3.03
2023-02-05T01:13:31.781Z,3.40
2023-02-05T01:16:07.919Z,4.25
2023-02-05T01:18:41.456Z,3.67
2023-02-05T01:23:48.704Z,2.80
2023-02-05T01:28:55.390Z,3.00
2023-02-05T01:31:30.827Z,4.47
2023-02-05T01:34:04.117Z,2.67
2023-02-05T01:36:37.477Z,2.92
2023-02-05T01:39:10.759Z,3.20
2023-02-05T01:41:45.831Z,4.13
2023-02-05T01:44:24.478Z,2.67
2023-02-05T01:46:59.086Z,4.25
2023-02-05T01:49:36.554Z,2.13
2023-02-05T01:52:14.115Z,2.92
2023-02-05T01:54:49.126Z,2.90
2023-02-05T01:57:26.226Z,3.60
2023-02-05T02:00:00.151Z,1.77
2023-02-05T02:02:36.711Z,1.80
2023-02-05T02:05:13.703Z,3.63
2023-02-05T02:07:47.871Z,3.58
2023-02-05T02:10:21.487Z,4.18
2023-02-05T02:12:56.486Z,2.45
2023-02-05T02:15:30.365Z,2.20
2023-02-05T02:21:12.349Z,2.65
2023-02-05T02:24:03.819Z,2.17
2023-02-05T02:27:03.772Z,2.75
2023-02-05T02:29:43.144Z,2.53
2023-02-05T02:32:22.038Z,6.00
2023-02-05T02:35:02.413Z,3.78
2023-02-05T02:37:40.490Z,3.10
2023-02-05T02:40:21.550Z,7.15
2023-02-05T02:43:04.424Z,5.35
2023-02-05T02:45:47.381Z,8.02
2023-02-05T02:48:25.736Z,3.78
2023-02-05T02:51:01.307Z,3.17
2023-02-05T02:53:39.092Z,3.38
2023-02-05T02:56:14.877Z,5.03
2023-02-05T02:58:51.492Z,3.53
2023-02-05T03:01:32.695Z,5.82
2023-02-05T03:04:10.813Z,3.75
2023-02-05T03:06:46.817Z,4.30
2023-02-05T03:09:27.502Z,3.88
2023-02-05T03:12:01.813Z,6.65
2023-02-05T03:14:36.797Z,3.88
2023-02-05T03:17:18.599Z,4.43
2023-02-05T03:19:59.391Z,4.10
2023-02-05T03:22:32.962Z,5.80
2023-02-05T03:25:08.866Z,4.00
2023-02-05T03:27:42.544Z,5.25
2023-02-05T03:33:01.778Z,5.22
2023-02-05T03:35:41.588Z,7.57
2023-02-05T03:38:30.469Z,4.30
2023-02-05T03:41:18.003Z,5.70
2023-02-05T03:44:02.373Z,4.30
2023-02-05T03:46:46.200Z,5.75
2023-02-05T03:49:29.294Z,4.72
2023-02-05T03:52:07.393Z,4.33
2023-02-05T03:54:44.981Z,4.80
2023-02-05T03:57:24.207Z,8.00
2023-02-05T03:59:58.858Z,6.75
2023-02-05T04:02:32.878Z,7.05
2023-02-05T04:07:41.003Z,6.57
2023-02-05T04:10:14.803Z,6.05
2023-02-05T04:12:49.106Z,5.07
2023-02-05T04:15:22.909Z,11.07
2023-02-05T04:17:57.997Z,7.45
2023-02-05T04:20:32.968Z,6.68
2023-02-05T04:23:06.220Z,9.48
2023-02-05T04:25:39.848Z,6.97
2023-02-05T04:28:13.869Z,5.88
2023-02-05T04:30:47.364Z,7.03
2023-02-05T04:33:20.765Z,5.97
2023-02-05T04:35:59.989Z,6.00
2023-02-05T04:38:33.298Z,6.30
2023-02-05T04:41:08.096Z,10.80
2023-02-05T04:43:41.285Z,7.32
2023-02-05T04:46:14.531Z,6.60
2023-02-05T04:48:48.404Z,8.48
2023-02-05T04:51:23.364Z,7.47
2023-02-05T04:53:56.631Z,6.55
2023-02-05T04:56:29.987Z,11.57
2023-02-05T04:59:03.223Z,11.63
2023-02-05T05:01:36.599Z,8.50
2023-02-05T05:04:10.325Z,6.47
2023-02-05T05:06:45.250Z,8.38
2023-02-05T05:09:20.917Z,8.77
2023-02-05T05:11:56.452Z,5.47
2023-02-05T05:14:30.344Z,4.45
2023-02-05T05:17:03.948Z,5.60
2023-02-05T05:19:37.419Z,9.13
2023-02-05T05:22:12.977Z,8.32
2023-02-05T05:24:46.339Z,7.90
2023-02-05T05:27:19.764Z,8.35
2023-02-05T05:29:53.001Z,8.88
2023-02-05T05:32:27.600Z,8.52
2023-02-05T05:35:00.810Z,6.72
2023-02-05T05:37:35.610Z,8.10
2023-02-05T05:40:28.456Z,9.45
2023-02-05T05:43:19.014Z,9.07
2023-02-05T05:45:54.118Z,10.45
2023-02-05T05:48:28.885Z,10.13
2023-02-05T05:51:02.283Z,8.30
2023-02-05T05:53:37.093Z,9.73
2023-02-05T05:56:10.733Z,10.75
2023-02-05T05:58:44.396Z,9.95
2023-02-05T06:01:21.160Z,9.05
2023-02-05T06:03:54.347Z,6.05
2023-02-05T06:06:27.774Z,7.10
2023-02-05T06:09:02.543Z,4.47
2023-02-05T06:11:36.184Z,6.30
2023-02-05T06:14:09.681Z,6.13
2023-02-05T06:16:43.006Z,6.50
2023-02-05T06:19:16.512Z,5.40
2023-02-05T06:21:49.974Z,4.70
2023-02-05T06:24:24.558Z,9.38
2023-02-05T06:26:57.987Z,9.95
2023-02-05T06:32:04.946Z,8.95
2023-02-05T06:34:38.353Z,8.75
2023-02-05T06:37:11.779Z,9.48
2023-02-05T06:39:46.491Z,7.25
2023-02-05T06:42:19.893Z,6.05
2023-02-05T06:44:53.312Z,6.90
2023-02-05T06:47:26.934Z,8.27
2023-02-05T06:50:00.448Z,8.45
2023-02-05T06:52:33.677Z,5.75
2023-02-05T06:55:09.023Z,5.90
2023-02-05T06:57:42.162Z,9.30
2023-02-05T07:00:16.750Z,12.68
2023-02-05T07:02:50.252Z,18.30
2023-02-05T07:07:57.099Z,9.80
2023-02-05T07:10:32.078Z,9.35
2023-02-05T07:13:06.223Z,10.68
2023-02-05T07:15:40.381Z,9.65
2023-02-05T07:18:13.810Z,9.95
2023-02-05T07:23:21.584Z,7.10
2023-02-05T07:25:56.108Z,13.13
2023-02-05T07:28:29.425Z,11.18
2023-02-05T07:31:04.703Z,9.52
2023-02-05T07:33:38.618Z,7.57
2023-02-05T07:36:13.657Z,6.47
2023-02-05T07:38:48.310Z,5.60
2023-02-05T07:41:22.920Z,8.40
2023-02-05T07:43:56.320Z,8.40
2023-02-05T07:46:29.784Z,9.55
2023-02-05T07:49:03.388Z,12.30
2023-02-05T07:54:11.167Z,9.48
2023-02-05T07:56:46.028Z,8.90
2023-02-05T07:59:19.449Z,9.82
2023-02-05T08:01:52.921Z,7.95
2023-02-05T08:04:26.457Z,12.95
2023-02-05T08:07:00.303Z,9.27
2023-02-05T08:09:34.315Z,11.38
2023-02-05T08:12:09.955Z,10.88
2023-02-05T08:14:43.713Z,11.05
2023-02-05T08:17:17.453Z,10.30
2023-02-05T08:19:52.007Z,11.95
2023-02-05T08:22:25.594Z,10.40
2023-02-05T08:24:59.106Z,13.75
2023-02-05T08:27:35.092Z,10.43
2023-02-05T08:30:11.795Z,12.13
2023-02-05T08:32:49.322Z,7.45
2023-02-05T08:35:22.687Z,9.63
2023-02-05T08:37:56.291Z,12.63
2023-02-05T08:40:30.105Z,9.55
2023-02-05T08:43:04.974Z,8.82
2023-02-05T08:45:38.906Z,9.57
2023-02-05T08:48:12.247Z,13.75
2023-02-05T08:50:47.347Z,7.50
2023-02-05T08:53:21.321Z,8.57
2023-02-05T08:55:57.058Z,10.82
2023-02-05T08:58:32.120Z,9.80
2023-02-05T09:01:07.372Z,13.02
2023-02-05T09:03:40.958Z,8.70
2023-02-05T09:06:16.764Z,7.93
2023-02-05T09:08:50.010Z,7.20
2023-02-05T09:11:26.689Z,8.73
2023-02-05T09:14:01.860Z,8.63
2023-02-05T09:16:36.217Z,7.70
2023-02-05T09:19:09.946Z,5.95
2023-02-05T09:21:43.473Z,8.57
2023-02-05T09:24:16.808Z,6.90
2023-02-05T09:26:50.029Z,9.02
2023-02-05T09:29:24.818Z,8.00
2023-02-05T09:31:58.904Z,12.93
2023-02-05T09:34:33.200Z,9.68
2023-02-05T09:37:06.904Z,9.32
2023-02-05T09:42:43.166Z,10.07
2023-02-05T09:45:38.511Z,7.65
2023-02-05T09:48:33.789Z,8.60
2023-02-05T09:51:11.153Z,10.38
2023-02-05T09:53:49.820Z,11.10
2023-02-05T09:56:24.365Z,9.07
2023-02-05T09:58:58.963Z,8.90
2023-02-05T10:01:41.979Z,9.60
2023-02-05T10:04:16.248Z,6.40
2023-02-05T10:07:20.785Z,6.38
2023-02-05T10:10:18.355Z,10.77
2023-02-05T10:13:29.220Z,9.27
2023-02-05T10:16:35.924Z,12.25
2023-02-05T10:19:38.417Z,12.15
2023-02-05T10:22:23.531Z,15.13
2023-02-05T10:25:34.846Z,10.38
2023-02-05T10:28:23.750Z,9.70
2023-02-05T10:31:04.880Z,13.57
2023-02-05T10:33:48.118Z,10.00
2023-02-05T10:36:27.289Z,9.98
2023-02-05T10:39:01.780Z,7.88
2023-02-05T10:41:39.711Z,9.95
2023-02-05T10:44:19.650Z,10.63
2023-02-05T10:47:01.778Z,11.07
2023-02-05T10:49:45.748Z,9.82
2023-02-05T10:52:20.680Z,12.52
2023-02-05T10:54:54.234Z,9.70
2023-02-05T10:57:32.534Z,9.00
2023-02-05T11:00:14.332Z,6.07
2023-02-05T11:02:51.749Z,7.35
2023-02-05T11:05:31.581Z,5.80
2023-02-05T11:08:06.652Z,8.15
2023-02-05T11:10:39.991Z,5.32
2023-02-05T11:13:20.093Z,7.95
2023-02-05T11:15:58.899Z,9.90
2023-02-05T11:18:37.821Z,8.82
2023-02-05T11:21:12.201Z,10.70
2023-02-05T11:23:56.613Z,8.73
2023-02-05T11:26:29.924Z,8.30
2023-02-05T11:29:20.731Z,9.60
2023-02-05T11:31:54.334Z,10.30
2023-02-05T11:34:27.841Z,5.55
2023-02-05T11:37:01.358Z,5.95
2023-02-05T11:39:39.020Z,5.57
2023-02-05T11:42:20.195Z,4.30
2023-02-05T11:44:56.419Z,6.03
2023-02-05T11:47:32.970Z,6.63
2023-02-05T11:50:19.439Z,7.63
2023-02-05T11:52:53.781Z,6.20
2023-02-05T11:55:32.497Z,6.15
2023-02-05T11:58:25.120Z,7.57
2023-02-05T12:01:23.978Z,7.30
2023-02-05T12:04:02.120Z,8.82
2023-02-05T12:06:42.462Z,5.63
2023-02-05T12:09:21.237Z,5.75
2023-02-05T12:12:11.356Z,8.75
2023-02-05T12:14:50.884Z,7.90
2023-02-05T12:17:39.858Z,5.22
2023-02-05T12:20:24.066Z,6.18
2023-02-05T12:23:15.880Z,7.00
2023-02-05T12:26:03.484Z,4.88
2023-02-05T12:28:51.772Z,7.00
2023-02-05T12:31:38.063Z,7.15
2023-02-05T12:34:24.433Z,4.65
2023-02-05T12:37:10.689Z,7.97
2023-02-05T12:39:47.998Z,8.23
2023-02-05T12:42:32.789Z,9.02
2023-02-05T12:45:28.272Z,8.85
2023-02-05T12:48:14.680Z,9.50
2023-02-05T12:51:02.206Z,11.00
2023-02-05T12:54:01.175Z,7.95
2023-02-05T12:56:50.535Z,8.15
2023-02-05T12:59:36.470Z,6.18
2023-02-05T13:02:23.928Z,12.45
2023-02-05T13:05:09.886Z,7.70
2023-02-05T13:07:46.660Z,6.72
2023-02-05T13:10:25.008Z,4.70
2023-02-05T13:13:06.072Z,4.38
2023-02-05T13:15:43.750Z,10.18
2023-02-05T13:18:24.888Z,4.80
2023-02-05T13:21:19.222Z,8.75
2023-02-05T13:24:12.432Z,10.18
2023-02-05T13:27:06.021Z,6.82
2023-02-05T13:29:51.299Z,5.47
2023-02-05T13:32:31.218Z,10.38
2023-02-05T13:35:08.551Z,6.43
2023-02-05T13:38:11.463Z,7.30
2023-02-05T13:41:00.651Z,8.13
2023-02-05T13:44:02.115Z,8.73
2023-02-05T13:47:05.922Z,8.55
2023-02-05T13:49:56.875Z,8.77
2023-02-05T13:53:06.182Z,5.63
2023-02-05T13:55:50.741Z,6.00
2023-02-05T13:58:26.993Z,3.88
2023-02-05T14:01:03.580Z,5.45
2023-02-05T14:03:39.513Z,6.43
2023-02-05T14:06:15.952Z,5.35
2023-02-05T14:08:53.084Z,5.93
2023-02-05T14:11:26.832Z,5.25
2023-02-05T14:14:24.095Z,5.10
2023-02-05T14:16:58.313Z,5.68
2023-02-05T14:19:56.983Z,7.10
2023-02-05T14:22:42.374Z,8.27
2023-02-05T14:26:01.753Z,4.57
2023-02-05T14:28:44.249Z,7.07
2023-02-05T14:31:46.507Z,5.80
2023-02-05T14:34:52.213Z,4.35
2023-02-05T14:37:30.906Z,5.65
2023-02-05T14:40:23.091Z,5.18
2023-02-05T14:43:09.824Z,5.72
2023-02-05T14:45:51.389Z,7.40
2023-02-05T14:48:29.947Z,7.38
2023-02-05T14:51:05.702Z,4.28
2023-02-05T14:53:39.934Z,8.25
2023-02-05T14:56:25.885Z,9.35
2023-02-05T14:59:05.252Z,9.45
2023-02-05T15:01:50.158Z,7.28
2023-02-05T15:04:30.241Z,7.60
2023-02-05T15:07:11.181Z,6.60
2023-02-05T15:09:49.665Z,4.05
2023-02-05T15:12:40.273Z,9.18
2023-02-05T15:15:32.395Z,7.07
2023-02-05T15:18:14.756Z,6.15
2023-02-05T15:20:50.150Z,7.50
2023-02-05T15:23:36.799Z,7.32
2023-02-05T15:26:21.065Z,8.13
2023-02-05T15:29:00.951Z,10.18
2023-02-05T15:31:41.412Z,7.38
2023-02-05T15:34:31.066Z,7.43
2023-02-05T15:37:07.707Z,8.50
2023-02-05T15:39:49.665Z,5.82
2023-02-05T15:42:31.837Z,7.80
2023-02-05T15:45:18.835Z,6.50
2023-02-05T15:48:00.286Z,5.88
2023-02-05T15:50:38.792Z,8.88
2023-02-05T15:53:27.372Z,8.75
2023-02-05T15:56:01.956Z,8.20
2023-02-05T15:58:36.102Z,7.10
2023-02-05T16:01:09.461Z,7.00
2023-02-05T16:03:42.945Z,7.55
2023-02-05T16:06:20.991Z,9.88
2023-02-05T16:08:54.488Z,12.75
2023-02-05T16:11:30.278Z,14.07
2023-02-05T16:14:06.688Z,16.23
2023-02-05T16:16:43.059Z,11.57
2023-02-05T16:19:22.988Z,15.27
2023-02-05T16:22:02.283Z,10.05
2023-02-05T16:24:42.288Z,18.10
2023-02-05T16:27:18.851Z,16.63
2023-02-05T16:29:56.576Z,10.27
2023-02-05T16:32:34.340Z,15.68
2023-02-05T16:35:14.837Z,11.50
2023-02-05T16:37:49.518Z,9.02
2023-02-05T16:40:35.432Z,15.05
2023-02-05T16:43:21.398Z,16.98
2023-02-05T16:46:25.881Z,17.27
2023-02-05T16:49:01.816Z,18.98
2023-02-05T16:51:53.602Z,16.75
2023-02-05T16:54:31.782Z,15.82
2023-02-05T16:57:12.764Z,14.82
2023-02-05T16:59:52.771Z,21.40
2023-02-05T17:02:30.591Z,19.52
2023-02-05T17:05:06.431Z,18.85
2023-02-05T17:07:40.421Z,19.17
2023-02-05T17:10:21.513Z,13.93
2023-02-05T17:12:57.981Z,14.07
2023-02-05T17:15:35.189Z,14.45
2023-02-05T17:18:25.346Z,14.57
2023-02-05T17:21:21.071Z,14.13
2023-02-05T17:23:56.874Z,12.80
2023-02-05T17:26:34.813Z,11.52
2023-02-05T17:29:09.893Z,9.45
2023-02-05T17:31:43.813Z,14.70
2023-02-05T17:34:17.357Z,20.45
2023-02-05T17:36:51.570Z,12.20
2023-02-05T17:39:25.247Z,11.15
2023-02-05T17:42:07.784Z,15.13
2023-02-05T17:44:41.226Z,14.93
2023-02-05T17:49:48.085Z,13.35
2023-02-05T17:52:21.409Z,11.73
2023-02-05T17:54:54.608Z,14.02
2023-02-05T17:57:33.787Z,12.52
2023-02-05T18:00:08.327Z,11.80
2023-02-05T18:02:41.898Z,10.93
2023-02-05T18:05:15.204Z,12.73
2023-02-05T18:07:51.881Z,11.55
2023-02-05T18:10:27.461Z,15.30
2023-02-05T18:13:03.065Z,17.75
2023-02-05T18:15:36.735Z,15.75
2023-02-05T18:18:10.913Z,14.60
2023-02-05T18:20:44.576Z,21.52
2023-02-05T18:23:28.382Z,14.82
2023-02-05T18:26:03.022Z,14.23
2023-02-05T18:28:37.978Z,15.68
2023-02-05T18:31:11.569Z,18.45
2023-02-05T18:33:45.791Z,19.40
2023-02-05T18:36:19.267Z,17.70
2023-02-05T18:38:52.503Z,22.35
2023-02-05T18:41:28.582Z,17.73
2023-02-05T18:44:03.589Z,12.38
2023-02-05T18:46:37.061Z,17.33
2023-02-05T18:49:10.516Z,20.58
2023-02-05T18:51:44.146Z,19.33
2023-02-05T18:54:17.444Z,17.58
2023-02-05T18:56:51.755Z,19.58
2023-02-05T18:59:26.582Z,19.45
2023-02-05T19:02:00.157Z,21.92
2023-02-05T19:04:34.006Z,19.75
2023-02-05T19:07:07.248Z,20.38
2023-02-05T19:09:40.468Z,17.30
2023-02-05T19:12:14.281Z,16.17
2023-02-05T19:17:27.272Z,19.55
2023-02-05T19:20:00.556Z,17.30
2023-02-05T19:22:33.876Z,20.20
2023-02-05T19:25:07.990Z,20.17
2023-02-05T19:27:41.284Z,18.52
2023-02-05T19:30:16.442Z,20.33
2023-02-05T19:32:50.179Z,18.13
2023-02-05T19:35:24.264Z,20.60
2023-02-05T19:37:57.588Z,14.60
2023-02-05T19:40:30.800Z,18.63
2023-02-05T19:43:04.248Z,16.30
2023-02-05T19:45:39.166Z,14.07
2023-02-05T19:48:12.953Z,16.65
2023-02-05T19:50:46.456Z,15.20
2023-02-05T19:53:21.286Z,16.70
2023-02-05T19:55:54.485Z,12.63
2023-02-05T19:58:28.047Z,16.88
2023-02-05T20:01:02.822Z,23.17
2023-02-05T20:03:36.517Z,19.63
2023-02-05T20:06:11.562Z,13.27
2023-02-05T20:08:46.328Z,15.07
2023-02-05T20:11:20.403Z,9.63
2023-02-05T20:13:54.425Z,16.33
2023-02-05T20:16:29.255Z,11.55
2023-02-05T20:19:02.744Z,16.23
2023-02-05T20:24:10.365Z,13.27
2023-02-05T20:26:43.947Z,13.85
2023-02-05T20:32:10.768Z,10.27
2023-02-05T20:34:47.719Z,11.23
2023-02-05T20:37:22.225Z,9.50
2023-02-05T20:39:57.605Z,11.85
2023-02-05T20:42:31.318Z,9.10
2023-02-05T20:47:39.829Z,8.82
2023-02-05T20:50:13.380Z,13.23
2023-02-05T20:52:46.884Z,6.63
2023-02-05T20:55:20.534Z,6.97
2023-02-05T20:57:54.456Z,7.85
2023-02-05T21:00:28.325Z,8.27
2023-02-05T21:03:03.072Z,12.90
2023-02-05T21:05:36.375Z,7.50
2023-02-05T21:08:09.644Z,11.50
2023-02-05T21:10:43.044Z,13.73
2023-02-05T21:13:16.909Z,10.05
2023-02-05T21:15:55.104Z,8.88
2023-02-05T21:18:30.858Z,7.60
2023-02-05T21:21:08.040Z,8.07
2023-02-05T21:23:42.218Z,8.95
2023-02-05T21:26:20.993Z,7.75
2023-02-05T21:28:55.386Z,16.48
2023-02-05T21:31:34.026Z,10.77
2023-02-05T21:34:10.520Z,12.38
2023-02-05T21:36:43.998Z,10.02
2023-02-05T21:39:20.181Z,7.82
2023-02-05T21:41:54.248Z,8.90
2023-02-05T21:44:27.726Z,8.57
2023-02-05T21:47:01.253Z,8.32
2023-02-05T21:49:36.554Z,7.43
2023-02-05T21:52:10.275Z,8.90
2023-02-05T21:54:43.649Z,6.45
2023-02-05T21:57:16.898Z,7.97
2023-02-05T21:59:50.265Z,9.38
2023-02-05T22:02:23.696Z,6.93
2023-02-05T22:04:58.429Z,8.48
2023-02-05T22:07:31.895Z,7.75
2023-02-05T22:10:06.096Z,7.78
2023-02-05T22:12:40.053Z,7.38
2023-02-05T22:17:47.881Z,8.05
2023-02-05T22:20:22.642Z,8.27
2023-02-05T22:22:56.384Z,7.00
2023-02-05T22:28:03.413Z,5.88
2023-02-05T22:30:36.753Z,7.80
2023-02-05T22:33:09.971Z,6.60
2023-02-05T22:35:44.920Z,5.70
2023-02-05T22:38:18.179Z,3.90
2023-02-05T22:40:52.938Z,5.80
2023-02-05T22:46:05.043Z,5.50
2023-02-05T22:48:39.914Z,5.97
2023-02-05T22:51:17.643Z,7.43
2023-02-05T22:53:51.282Z,4.95
2023-02-05T22:56:25.442Z,8.63
2023-02-05T22:59:00.254Z,7.00
2023-02-05T23:01:38.306Z,5.82
2023-02-05T23:04:12.655Z,5.28
2023-02-05T23:06:48.104Z,6.53
2023-02-05T23:09:21.885Z,3.35
2023-02-05T23:11:56.862Z,3.03
2023-02-05T23:14:30.766Z,5.50
2023-02-05T23:17:04.688Z,6.35
2023-02-05T23:19:37.954Z,5.75
2023-02-05T23:22:12.622Z,3.75
2023-02-05T23:24:46.377Z,4.53
2023-02-05T23:27:19.614Z,4.53
2023-02-05T23:29:52.968Z,4.40
2023-02-05T23:32:26.552Z,5.05
2023-02-05T23:34:59.760Z,5.63
2023-02-05T23:37:34.924Z,6.47
2023-02-05T23:40:09.982Z,5.45
2023-02-05T23:42:43.665Z,5.13
2023-02-05T23:45:17.031Z,4.97
2023-02-05T23:47:50.117Z,5.63
2023-02-05T23:50:23.585Z,4.82
2023-02-05T23:52:58.285Z,5.38
2023-02-05T23:55:31.814Z,5.85
